Time;durP1;ratioP1;P1;durP2;ratioP2;P2;SDS_P1;SDS_P2;PMS_P1;PMS_P2;Temp;Humidity;BMP_temperature;BMP_pressure;BME280_temperature;BME280_humidity;BME280_pressure;Samples;Min_cycle;Max_cycle;Signal;HPM_P1;HPM_P2
2023/10/26 00:00:32;;;;;;;13.45;10.38;;;;;;;18.96;50.88;91808.34;6125721;23;20016;-93
2023/10/26 00:02:58;;;;;;;15.73;11.10;;;;;;;18.92;50.72;91797.03;6112721;23;20064;-94
2023/10/26 00:05:24;;;;;;;15.07;10.95;;;;;;;18.94;50.76;91791.00;6110624;23;20013;-93
2023/10/26 00:07:52;;;;;;;14.38;10.43;;;;;;;18.93;51.13;91803.97;6096911;23;20045;-92
2023/10/26 00:10:18;;;;;;;14.20;10.13;;;;;;;18.94;50.94;91794.47;6071482;23;20637;-93
2023/10/26 00:12:46;;;;;;;13.30;10.13;;;;;;;18.92;51.04;91807.25;6073445;23;20019;-93
2023/10/26 00:15:12;;;;;;;13.77;9.57;;;;;;;18.95;50.97;91778.75;6073298;23;20025;-94
2023/10/26 00:17:38;;;;;;;13.68;9.18;;;;;;;18.93;50.89;91782.06;6100931;23;20021;-94
2023/10/26 00:20:05;;;;;;;14.40;9.73;;;;;;;18.91;50.83;91792.09;6075379;23;20018;-93
2023/10/26 00:22:31;;;;;;;11.48;9.23;;;;;;;18.92;51.01;91768.91;6076809;23;20018;-94
2023/10/26 00:24:56;;;;;;;12.93;9.18;;;;;;;18.93;50.91;91767.63;6100768;23;20018;-92
2023/10/26 00:27:22;;;;;;;14.57;10.32;;;;;;;18.91;50.79;91776.41;6074772;23;20022;-93
2023/10/26 00:29:49;;;;;;;14.20;9.25;;;;;;;18.90;51.10;91776.94;6077595;23;20073;-92
2023/10/26 00:32:15;;;;;;;12.52;8.77;;;;;;;18.91;51.11;91768.19;6076913;23;20014;-94
2023/10/26 00:34:41;;;;;;;13.57;9.68;;;;;;;18.91;51.11;91779.13;6078205;23;20026;-92
2023/10/26 00:37:06;;;;;;;13.10;9.93;;;;;;;18.88;50.83;91782.97;6077916;23;20033;-94
2023/10/26 00:39:33;;;;;;;14.25;9.65;;;;;;;18.91;51.17;91784.63;6106549;23;20029;-92
2023/10/26 00:41:59;;;;;;;9.95;7.82;;;;;;;18.89;51.06;91789.19;6161101;23;20020;-93
2023/10/26 00:44:27;;;;;;;11.75;8.88;;;;;;;18.91;50.86;91792.09;6161299;23;20013;-94
2023/10/26 00:46:56;;;;;;;11.75;8.15;;;;;;;18.87;51.24;91786.28;6158901;23;20032;-93
2023/10/26 00:49:26;;;;;;;9.68;7.68;;;;;;;18.88;51.16;91796.66;6147874;23;20021;-92
2023/10/26 00:51:56;;;;;;;12.73;7.70;;;;;;;18.88;51.20;91798.69;6149030;23;20021;-92
2023/10/26 00:54:26;;;;;;;10.80;8.20;;;;;;;18.88;51.13;91795.94;6136718;23;20017;-93
2023/10/26 00:56:54;;;;;;;9.82;7.20;;;;;;;18.86;51.08;91799.22;6124303;23;20017;-93
2023/10/26 00:59:27;;;;;;;13.75;8.75;;;;;;;18.87;51.04;91787.00;6147463;23;20021;-93
2023/10/26 01:01:59;;;;;;;9.48;7.78;;;;;;;18.86;51.01;91791.00;6149893;23;20096;-92
2023/10/26 01:04:27;;;;;;;10.88;7.32;;;;;;;18.87;51.17;91780.78;6104343;23;20027;-92
2023/10/26 01:06:59;;;;;;;10.75;8.10;;;;;;;18.87;50.94;91789.00;6147046;23;20009;-93
2023/10/26 01:09:27;;;;;;;11.25;7.97;;;;;;;18.87;51.07;91789.00;6082160;23;20461;-91
2023/10/26 01:12:06;;;;;;;10.27;7.90;;;;;;;18.85;51.02;91808.72;6133807;23;20025;-92
2023/10/26 01:14:36;;;;;;;9.45;7.35;;;;;;;18.87;51.08;91794.47;6130957;23;20027;-93
2023/10/26 01:17:08;;;;;;;10.38;7.82;;;;;;;18.85;51.02;91797.78;6115650;23;20024;-92
2023/10/26 01:20:26;;;;;;;10.35;8.13;;;;;;;18.85;50.88;91786.81;6123388;23;20017;-91
2023/10/26 01:23:03;;;;;;;12.75;8.23;;;;;;;18.84;50.86;91775.13;6031445;23;20014;-93
2023/10/26 01:25:45;;;;;;;;;;;;;;;;;;;;;
2023/10/26 01:28:25;;;;;;;10.77;8.07;;;;;;;18.86;51.01;91771.84;5929986;23;20046;-92
2023/10/26 01:31:18;;;;;;;10.03;7.13;;;;;;;18.86;50.98;91763.63;6049940;23;20114;-93
2023/10/26 01:33:54;;;;;;;8.20;6.88;;;;;;;18.85;51.03;91756.69;6120311;23;20261;-93
2023/10/26 01:36:55;;;;;;;10.15;7.80;;;;;;;18.84;50.99;91761.44;6105673;23;20084;-92
2023/10/26 01:39:48;;;;;;;9.48;7.30;;;;;;;18.85;51.16;91759.44;6024769;23;20572;-93
2023/10/26 01:42:56;;;;;;;;;;;;;;;;;;;;;
2023/10/26 01:45:34;;;;;;;11.07;7.90;;;;;;;18.83;51.07;91756.56;6043226;23;20097;-92
2023/10/26 01:48:12;;;;;;;9.32;7.07;;;;;;;18.80;51.03;91763.13;6036576;23;20043;-93
2023/10/26 01:50:47;;;;;;;9.35;7.40;;;;;;;18.80;51.03;91757.66;6066408;23;20022;-94
2023/10/26 01:53:33;;;;;;;9.57;6.32;;;;;;;18.81;51.15;91757.09;6053084;23;20069;-93
2023/10/26 01:56:01;;;;;;;7.95;6.47;;;;;;;18.82;50.98;91766.78;6028949;23;20447;-93
2023/10/26 01:58:26;;;;;;;7.25;6.25;;;;;;;18.83;51.15;91770.97;6008384;23;20022;-93
2023/10/26 02:00:52;;;;;;;9.55;6.97;;;;;;;18.83;51.06;91770.97;6006789;23;20046;-92
2023/10/26 02:03:18;;;;;;;8.30;6.63;;;;;;;18.84;51.40;91774.41;6065433;23;20026;-94
2023/10/26 02:05:46;;;;;;;9.00;6.35;;;;;;;18.84;51.30;91753.25;6041918;23;20025;-93
2023/10/26 02:08:11;;;;;;;7.97;5.95;;;;;;;18.85;51.08;91748.50;6018727;23;20018;-92
2023/10/26 02:10:39;;;;;;;7.82;5.80;;;;;;;18.86;51.24;91747.22;6029535;23;20026;-92
2023/10/26 02:13:05;;;;;;;7.93;5.85;;;;;;;18.86;50.82;91749.22;6066607;23;20510;-94
2023/10/26 02:15:30;;;;;;;8.85;6.35;;;;;;;18.84;51.04;91744.28;6070008;23;20095;-93
2023/10/26 02:17:57;;;;;;;8.07;6.00;;;;;;;18.86;51.18;91743.75;6110210;23;20032;-93
2023/10/26 02:20:23;;;;;;;6.82;5.20;;;;;;;18.88;51.39;91749.41;6109091;23;20116;-92
2023/10/26 02:22:51;;;;;;;8.65;6.30;;;;;;;18.83;51.08;91756.56;6098447;23;20025;-93
2023/10/26 02:25:22;;;;;;;9.02;6.28;;;;;;;18.86;51.13;91749.22;6134099;23;20049;-93
2023/10/26 02:27:48;;;;;;;9.65;5.95;;;;;;;18.84;50.99;91753.25;6138637;23;20013;-94
2023/10/26 02:30:16;;;;;;;7.53;6.13;;;;;;;18.85;51.03;91732.06;6137023;23;20039;-92
2023/10/26 02:32:44;;;;;;;8.23;5.70;;;;;;;18.82;51.18;91733.94;6132553;23;20018;-94
2023/10/26 02:35:11;;;;;;;8.15;6.30;;;;;;;18.83;51.04;91729.19;6105109;23;20044;-94
2023/10/26 02:37:39;;;;;;;6.68;5.03;;;;;;;18.84;51.34;91727.88;6144037;23;20013;-93
2023/10/26 02:40:06;;;;;;;7.10;5.15;;;;;;;18.79;51.11;91735.03;6128482;23;20017;-94
2023/10/26 02:42:33;;;;;;;5.50;4.15;;;;;;;18.81;51.18;91737.94;6133876;23;20024;-93
2023/10/26 02:45:03;;;;;;;6.88;5.50;;;;;;;18.80;51.28;91722.06;6133949;23;20468;-93
2023/10/26 02:47:30;;;;;;;7.28;4.90;;;;;;;18.81;51.20;91724.25;6094565;23;20456;-92
2023/10/26 02:50:01;;;;;;;6.70;4.45;;;;;;;18.81;51.23;91740.69;6081958;23;20279;-93
2023/10/26 02:52:29;;;;;;;5.82;4.93;;;;;;;18.81;51.03;91739.94;6083694;23;20013;-90
2023/10/26 02:55:03;;;;;;;6.60;5.28;;;;;;;18.79;51.42;91732.28;6084021;23;20032;-93
2023/10/26 02:57:29;;;;;;;6.35;4.75;;;;;;;18.84;51.38;91736.09;6108778;23;20013;-93
2023/10/26 02:59:54;;;;;;;7.07;5.07;;;;;;;18.84;51.16;91741.56;6103996;23;20021;-93
2023/10/26 03:02:20;;;;;;;6.78;5.00;;;;;;;18.82;51.25;91744.16;6117849;23;20018;-94
2023/10/26 03:04:46;;;;;;;6.28;4.60;;;;;;;18.82;51.18;91744.16;6121423;23;20290;-93
2023/10/26 03:07:12;;;;;;;7.28;4.82;;;;;;;18.80;51.39;91739.22;6118584;23;20018;-91
2023/10/26 03:09:38;;;;;;;5.82;4.65;;;;;;;18.80;51.24;91744.69;6136052;23;20013;-92
2023/10/26 03:12:04;;;;;;;5.95;4.38;;;;;;;18.81;51.35;91734.47;6096773;23;20436;-93
2023/10/26 03:14:30;;;;;;;5.78;4.53;;;;;;;18.81;51.23;91739.94;6105520;23;20457;-93
2023/10/26 03:17:00;;;;;;;5.03;4.35;;;;;;;18.81;51.23;91739.94;6115938;23;20060;-93
2023/10/26 03:19:26;;;;;;;6.22;4.60;;;;;;;18.82;51.09;91738.66;6118559;23;20021;-93
2023/10/26 03:21:56;;;;;;;6.10;4.65;;;;;;;18.81;51.22;91740.69;6131637;23;20021;-92
2023/10/26 03:24:21;;;;;;;6.50;4.50;;;;;;;18.82;51.10;91746.88;6129835;23;20021;-93
2023/10/26 03:26:49;;;;;;;6.10;4.68;;;;;;;18.81;51.49;91734.47;6104522;23;20037;-93
2023/10/26 03:29:16;;;;;;;5.20;3.90;;;;;;;18.79;51.25;91740.50;6090709;23;20718;-93
2023/10/26 03:31:43;;;;;;;4.50;3.80;;;;;;;18.80;51.43;91739.22;6089901;23;20021;-93
2023/10/26 03:34:09;;;;;;;4.65;4.10;;;;;;;18.80;51.23;91746.69;6129936;23;20037;-92
2023/10/26 03:36:37;;;;;;;5.22;4.22;;;;;;;18.79;51.32;91740.50;6137273;23;20359;-92
2023/10/26 03:39:06;;;;;;;5.88;4.28;;;;;;;18.79;51.26;91748.00;6158768;23;20021;-93
2023/10/26 03:41:34;;;;;;;5.25;4.18;;;;;;;18.79;51.39;91745.97;6144721;23;20348;-93
2023/10/26 03:44:02;;;;;;;5.15;4.05;;;;;;;18.79;51.46;91737.03;6118637;23;20040;-92
2023/10/26 03:46:36;;;;;;;4.85;3.97;;;;;;;18.80;51.23;91736.47;6159682;23;20017;-94
2023/10/26 03:49:07;;;;;;;4.53;3.60;;;;;;;18.79;51.25;91745.97;6132342;23;20031;-92
2023/10/26 03:51:40;;;;;;;5.03;4.10;;;;;;;18.79;51.37;91743.25;6109864;23;20025;-93
2023/10/26 03:54:08;;;;;;;4.32;3.58;;;;;;;18.79;51.22;91737.75;6159704;23;20342;-93
2023/10/26 03:56:36;;;;;;;5.18;3.83;;;;;;;18.75;51.19;91740.16;6159003;23;20504;-93
2023/10/26 03:59:07;;;;;;;5.13;4.28;;;;;;;18.74;51.20;91738.69;6145128;23;20025;-92
2023/10/26 04:01:44;;;;;;;5.10;4.05;;;;;;;18.72;51.05;91738.50;6131529;23;20013;-92
2023/10/26 04:04:19;;;;;;;4.28;3.08;;;;;;;18.76;51.32;91727.91;6145681;23;20013;-92
2023/10/26 04:06:53;;;;;;;7.28;4.13;;;;;;;18.76;51.24;91727.19;6134105;23;20021;-92
2023/10/26 04:09:19;;;;;;;5.75;4.30;;;;;;;18.72;51.30;91727.56;6132349;23;20466;-90
2023/10/26 04:11:55;;;;;;;6.82;4.00;;;;;;;18.74;51.21;91725.00;6135799;23;20013;-92
2023/10/26 04:14:34;;;;;;;4.75;3.83;;;;;;;18.74;51.43;91727.75;6105865;23;20453;-92
2023/10/26 04:17:15;;;;;;;4.30;3.60;;;;;;;18.75;51.13;91725.72;6135947;23;20029;-93
2023/10/26 04:19:47;;;;;;;4.65;3.63;;;;;;;18.72;50.84;91724.81;6105605;23;20021;-93
2023/10/26 04:22:32;;;;;;;5.13;3.83;;;;;;;18.74;51.02;91729.75;6145589;23;20088;-92
2023/10/26 04:25:08;;;;;;;4.43;3.78;;;;;;;18.75;51.21;91723.00;6155308;23;20036;-92
2023/10/26 04:27:38;;;;;;;5.60;3.53;;;;;;;18.73;51.22;91717.34;6136053;23;20103;-90
2023/10/26 04:30:09;;;;;;;3.88;2.90;;;;;;;18.75;51.44;91715.50;6129991;23;20020;-92
2023/10/26 04:32:45;;;;;;;3.85;2.80;;;;;;;18.74;50.95;91716.78;6144567;23;20028;-94
2023/10/26 04:35:22;;;;;;;3.42;2.88;;;;;;;18.75;50.83;91714.78;6127189;23;20041;-91
2023/10/26 04:37:56;;;;;;;4.68;2.83;;;;;;;18.79;51.39;91715.88;6137306;23;20499;-91
2023/10/26 04:40:27;;;;;;;4.40;3.05;;;;;;;18.79;51.30;91715.88;6120362;23;20108;-92
2023/10/26 04:42:56;;;;;;;4.20;2.72;;;;;;;18.77;51.11;91714.97;6090890;23;20418;-92
2023/10/26 04:45:56;;;;;;;3.65;2.88;;;;;;;18.75;51.13;91720.25;6102127;23;20345;-92
2023/10/26 04:48:39;;;;;;;3.85;2.85;;;;;;;18.80;51.07;91711.13;6167147;23;20032;-93
2023/10/26 04:51:15;;;;;;;3.40;2.55;;;;;;;18.77;51.37;91709.47;6147062;23;20021;-92
2023/10/26 04:53:48;;;;;;;3.33;2.50;;;;;;;18.78;51.18;91713.69;6143817;23;20044;-93
2023/10/26 04:56:24;;;;;;;4.00;2.92;;;;;;;18.80;51.12;91708.38;6131502;23;20021;-93
2023/10/26 04:59:01;;;;;;;3.17;2.30;;;;;;;18.77;51.23;91712.94;6111877;23;20027;-92
2023/10/26 05:01:32;;;;;;;2.97;2.45;;;;;;;18.80;51.03;91722.06;6121105;23;20077;-93
2023/10/26 05:04:13;;;;;;;3.20;2.25;;;;;;;18.78;51.03;91717.16;6123647;23;20424;-92
2023/10/26 05:06:52;;;;;;;2.40;2.20;;;;;;;18.77;51.22;91714.97;6133597;23;20013;-92
2023/10/26 05:09:40;;;;;;;2.55;1.90;;;;;;;18.79;50.87;91699.44;6156803;23;20017;-92
2023/10/26 05:12:10;;;;;;;2.85;2.38;;;;;;;18.76;51.01;91711.50;6134201;23;20029;-91
2023/10/26 05:14:40;;;;;;;2.60;2.00;;;;;;;18.77;51.13;91707.47;6144265;23;20016;-93
2023/10/26 05:17:15;;;;;;;2.38;2.13;;;;;;;18.78;51.17;91705.47;6139581;23;20519;-92
2023/10/26 05:19:50;;;;;;;2.80;2.17;;;;;;;18.76;50.92;91705.28;6114645;23;20144;-92
2023/10/26 05:22:24;;;;;;;1.98;1.52;;;;;;;18.76;50.82;91705.28;6119519;23;20595;-93
2023/10/26 05:25:13;;;;;;;2.47;2.05;;;;;;;18.75;50.98;91703.84;6144777;23;20041;-93
2023/10/26 05:27:44;;;;;;;2.83;2.15;;;;;;;18.74;50.77;91697.63;6156472;23;20453;-93
2023/10/26 05:30:13;;;;;;;2.67;2.00;;;;;;;18.78;50.85;91700.72;6138928;23;20021;-94
2023/10/26 05:32:49;;;;;;;4.22;2.17;;;;;;;18.78;51.07;91684.28;6139894;23;20013;-92
2023/10/26 05:35:24;;;;;;;2.25;1.70;;;;;;;18.80;50.92;91681.72;6137613;23;20021;-93
2023/10/26 05:38:01;;;;;;;2.83;2.25;;;;;;;18.77;50.84;91684.84;6138844;23;20469;-91
2023/10/26 05:40:37;;;;;;;2.20;2.00;;;;;;;18.80;50.90;91689.94;6076038;23;20096;-92
2023/10/26 05:43:10;;;;;;;2.92;1.83;;;;;;;18.77;50.70;91682.84;6117106;23;20025;-90
2023/10/26 05:46:27;;;;;;;;;;;;;;;;;;;;;
2023/10/26 05:49:20;;;;;;;2.38;1.80;;;;;;;18.81;51.04;91688.66;6133206;23;20132;-92
2023/10/26 05:51:53;;;;;;;2.58;1.88;;;;;;;18.80;51.06;91687.22;6087039;23;20091;-92
2023/10/26 05:54:24;;;;;;;2.13;1.77;;;;;;;18.76;50.98;91683.41;6116772;23;20091;-94
2023/10/26 05:56:56;;;;;;;2.15;1.40;;;;;;;18.77;51.11;91685.56;6124102;23;20024;-91
2023/10/26 05:59:40;;;;;;;2.65;1.95;;;;;;;18.78;51.06;91684.28;6119658;23;20024;-91
2023/10/26 06:02:09;;;;;;;1.92;1.45;;;;;;;18.76;50.59;91686.13;6124817;23;20036;-90
2023/10/26 06:04:35;;;;;;;2.10;1.67;;;;;;;18.79;50.65;91676.81;6101881;23;20452;-91
2023/10/26 06:07:01;;;;;;;2.38;1.45;;;;;;;18.81;51.35;91688.66;6177734;23;20020;-93
2023/10/26 06:09:50;;;;;;;1.85;1.50;;;;;;;18.77;50.84;91687.59;6103836;23;20338;-94
2023/10/26 06:12:28;;;;;;;2.25;1.67;;;;;;;18.75;50.89;91693.63;6096587;23;20025;-93
2023/10/26 06:15:05;;;;;;;;;;;;;;;;;;;;;
2023/10/26 06:17:34;;;;;;;2.00;1.38;;;;;;;18.79;50.54;91693.97;6081001;23;20616;-92
2023/10/26 06:20:27;;;;;;;;;;;;;;;;;;;;;
2023/10/26 06:22:58;;;;;;;1.50;1.20;;;;;;;18.75;50.67;91696.34;6161680;23;21529;-93
2023/10/26 06:25:28;;;;;;;1.77;1.10;;;;;;;18.76;50.78;91688.88;6153047;23;20408;-94
2023/10/26 06:28:06;;;;;;;1.23;1.00;;;;;;;18.78;50.77;91697.97;6120739;23;20415;-92
2023/10/26 06:30:50;;;;;;;1.50;1.20;;;;;;;18.77;50.58;91695.81;6114833;23;20031;-93
2023/10/26 06:33:30;;;;;;;1.33;1.10;;;;;;;18.76;50.67;91706.03;6094015;23;20020;-94
2023/10/26 06:36:03;;;;;;;1.20;1.00;;;;;;;18.80;50.71;91713.84;6097347;23;20021;-93
2023/10/26 06:38:40;;;;;;;1.95;1.30;;;;;;;18.79;50.78;91712.41;6122791;23;20481;-92
2023/10/26 06:41:49;;;;;;;1.38;1.08;;;;;;;18.79;50.65;91709.66;6102238;23;20224;-94
2023/10/26 06:44:44;;;;;;;1.25;1.15;;;;;;;18.76;50.83;91702.56;6104869;23;20070;-93
2023/10/26 06:47:39;;;;;;;0.77;0.77;;;;;;;18.76;50.71;91706.03;6138969;23;20029;-91
2023/10/26 06:50:29;;;;;;;1.50;1.35;;;;;;;18.77;51.03;91710.22;6159299;23;20025;-93
2023/10/26 06:53:12;;;;;;;1.67;1.27;;;;;;;18.76;50.73;91697.81;6073833;23;20030;-93
2023/10/26 06:55:58;;;;;;;1.35;1.02;;;;;;;18.75;50.59;91696.34;6014288;23;20697;-91
2023/10/26 06:58:51;;;;;;;1.10;1.00;;;;;;;18.76;50.86;91694.34;6013960;23;20028;-91
2023/10/26 07:01:33;;;;;;;1.45;0.93;;;;;;;18.79;50.64;91704.19;6067249;23;20084;-94
2023/10/26 07:04:00;;;;;;;1.98;0.93;;;;;;;18.76;50.55;91695.06;6045351;23;20026;-92
2023/10/26 07:06:26;;;;;;;0.80;0.80;;;;;;;18.78;50.38;91702.72;6062877;23;20346;-92
2023/10/26 07:08:51;;;;;;;2.03;0.98;;;;;;;18.75;50.48;91706.56;6065154;23;20461;-92
2023/10/26 07:11:17;;;;;;;1.23;1.00;;;;;;;18.79;50.12;91706.91;6064133;23;20122;-92
2023/10/26 07:13:44;;;;;;;2.55;1.00;;;;;;;18.79;50.02;91713.13;6065872;23;20025;-92
2023/10/26 07:16:09;;;;;;;1.13;0.80;;;;;;;18.84;50.22;91705.97;6040771;23;20058;-93
2023/10/26 07:18:37;;;;;;;2.28;1.80;;;;;;;18.82;49.99;91712.03;6065189;23;20022;-92
2023/10/26 07:21:05;;;;;;;6.95;1.70;;;;;;;18.86;50.22;91713.63;6041712;23;20022;-91
2023/10/26 07:23:32;;;;;;;1.33;1.20;;;;;;;18.89;50.11;91721.47;6054075;23;20015;-95
2023/10/26 07:25:58;;;;;;;1.40;1.15;;;;;;;18.86;50.21;91719.09;6006986;23;20029;-94
2023/10/26 07:28:26;;;;;;;8.95;4.03;;;;;;;18.84;50.10;91717.66;6033294;23;20067;-92
2023/10/26 07:30:58;;;;;;;2.25;1.42;;;;;;;18.88;50.12;91714.53;6092604;23;20025;-92
2023/10/26 07:33:26;;;;;;;2.70;1.30;;;;;;;18.90;50.11;91722.91;6069154;23;20097;-93
2023/10/26 07:35:52;;;;;;;7.13;2.35;;;;;;;18.90;49.82;91719.44;6068878;23;20134;-91
2023/10/26 07:38:20;;;;;;;12.30;7.40;;;;;;;18.91;49.54;91720.91;6028680;23;20502;-93
2023/10/26 07:40:52;;;;;;;3.55;2.72;;;;;;;18.91;50.04;91724.38;6043168;23;20052;-92
2023/10/26 07:43:20;;;;;;;6.55;2.97;;;;;;;18.94;50.15;91722.53;6000032;23;20023;-95
2023/10/26 07:45:46;;;;;;;8.05;5.82;;;;;;;18.91;49.90;91716.16;6047813;23;20047;-92
2023/10/26 07:48:12;;;;;;;7.05;3.67;;;;;;;18.92;49.81;91714.88;6012603;23;20018;-93
2023/10/26 07:50:37;;;;;;;11.27;7.25;;;;;;;18.93;49.90;91721.81;6107942;23;20452;-93
2023/10/26 07:53:05;;;;;;;9.65;5.28;;;;;;;18.91;49.66;91716.16;6074579;23;20536;-92
2023/10/26 07:55:33;;;;;;;13.35;6.88;;;;;;;18.95;49.70;91726.75;6075530;23;20053;-92
2023/10/26 07:58:01;;;;;;;7.75;5.00;;;;;;;18.94;49.59;91730.75;6028839;23;20023;-94
2023/10/26 08:00:27;;;;;;;7.88;5.38;;;;;;;18.95;49.58;91735.69;6052056;23;20057;-93
2023/10/26 08:03:00;;;;;;;9.82;5.63;;;;;;;18.95;49.62;91732.94;6051891;23;20491;-93
2023/10/26 08:05:25;;;;;;;9.02;6.05;;;;;;;18.97;49.71;91732.38;6037239;23;20022;-92
2023/10/26 08:07:52;;;;;;;6.55;4.40;;;;;;;19.01;49.51;91730.00;6041398;23;20029;-91
2023/10/26 08:10:17;;;;;;;16.95;6.32;;;;;;;19.01;49.62;91730.00;6052578;23;20057;-94
2023/10/26 08:12:45;;;;;;;8.70;5.35;;;;;;;19.01;49.80;91736.22;6099721;23;20520;-91
2023/10/26 08:15:23;;;;;;;10.38;5.80;;;;;;;19.02;49.80;91726.72;6090039;23;20052;-94
2023/10/26 08:17:50;;;;;;;14.43;7.85;;;;;;;19.00;49.91;91723.81;6113354;23;20081;-90
2023/10/26 08:20:17;;;;;;;8.30;4.28;;;;;;;19.04;50.37;91729.63;6114224;23;20061;-91
2023/10/26 08:22:42;;;;;;;9.73;4.80;;;;;;;19.02;49.74;91723.97;6139976;23;20010;-93
2023/10/26 08:25:11;;;;;;;6.13;4.22;;;;;;;19.02;50.77;91731.47;6050782;23;20024;-90
2023/10/26 08:27:36;;;;;;;7.35;4.75;;;;;;;19.04;50.74;91728.91;6069439;23;20050;-89
2023/10/26 08:30:03;;;;;;;6.63;4.38;;;;;;;19.06;50.69;91734.53;6066081;23;20085;-90
2023/10/26 08:32:29;;;;;;;10.55;4.88;;;;;;;19.04;50.13;91737.84;6087951;23;20533;-91
2023/10/26 08:34:57;;;;;;;8.38;3.72;;;;;;;19.07;50.63;91738.72;6063693;23;20030;-91
2023/10/26 08:37:27;;;;;;;13.13;4.00;;;;;;;19.09;50.90;91734.16;6066904;23;20026;-92
2023/10/26 08:39:52;;;;;;;9.68;5.47;;;;;;;19.06;49.72;91738.00;6065017;23;20059;-91
2023/10/26 08:42:18;;;;;;;9.63;5.10;;;;;;;19.04;49.90;91743.31;6073803;23;20026;-90
2023/10/26 08:44:43;;;;;;;7.75;4.13;;;;;;;19.08;50.59;91748.38;6063875;23;20022;-91
2023/10/26 08:47:11;;;;;;;11.85;5.50;;;;;;;19.07;50.28;91747.66;6063618;23;20052;-90
2023/10/26 08:49:37;;;;;;;10.57;4.38;;;;;;;19.11;50.66;91752.75;6039799;23;20055;-89
2023/10/26 08:52:03;;;;;;;9.38;5.07;;;;;;;19.10;49.92;91748.56;6062714;23;20026;-91
2023/10/26 08:54:29;;;;;;;7.35;4.63;;;;;;;19.12;50.27;91757.69;6056490;23;20044;-89
2023/10/26 08:56:54;;;;;;;8.75;5.13;;;;;;;19.13;50.01;91744.72;6039249;23;20494;-92
2023/10/26 08:59:24;;;;;;;19.90;6.40;;;;;;;19.09;49.60;91738.91;6080780;23;20159;-91
2023/10/26 09:01:49;;;;;;;14.90;4.72;;;;;;;19.08;49.22;91737.44;6108175;23;20018;-90
2023/10/26 09:04:15;;;;;;;39.83;5.72;;;;;;;19.01;48.51;91738.94;6125439;23;20028;-91
2023/10/26 09:06:45;;;;;;;32.40;5.18;;;;;;;19.02;48.11;91745.88;6084304;23;20088;-92
2023/10/26 09:09:11;;;;;;;13.15;3.65;;;;;;;18.98;49.00;91742.78;6123273;23;20080;-88
2023/10/26 09:11:37;;;;;;;35.35;4.90;;;;;;;18.86;48.30;91738.25;6121110;23;20014;-88
2023/10/26 09:14:15;;;;;;;17.20;5.10;;;;;;;18.88;48.47;91741.19;6121837;23;20453;-88
2023/10/26 09:16:42;;;;;;;16.60;3.70;;;;;;;18.90;48.71;91741.34;6123492;23;20029;-90
2023/10/26 09:19:08;;;;;;;15.50;4.00;;;;;;;18.86;48.70;91744.47;6122892;23;20164;-88
2023/10/26 09:21:53;;;;;;;12.90;3.95;;;;;;;18.92;49.29;91739.53;6125866;23;20342;-88
2023/10/26 09:24:24;;;;;;;16.55;4.40;;;;;;;18.93;49.11;91743.00;6147129;23;20080;-91
2023/10/26 09:26:51;;;;;;;18.15;3.72;;;;;;;18.96;48.34;91744.63;6116122;23;20040;-89
2023/10/26 09:29:17;;;;;;;12.75;4.28;;;;;;;18.97;48.51;91730.38;6144761;23;20020;-88
2023/10/26 09:31:53;;;;;;;22.73;6.13;;;;;;;18.99;48.90;91736.03;6108359;23;20044;-89
2023/10/26 09:34:24;;;;;;;28.25;7.55;;;;;;;19.02;49.25;91740.41;6125904;23;20045;-89
2023/10/26 09:37:09;;;;;;;27.55;8.68;;;;;;;19.05;49.20;91728.31;6080421;23;20538;-88
2023/10/26 09:39:35;;;;;;;22.33;7.32;;;;;;;19.04;49.39;91729.63;6094376;23;20606;-88
2023/10/26 09:42:01;;;;;;;27.85;7.05;;;;;;;19.07;49.03;91730.50;6058609;23;20046;-91
2023/10/26 09:44:28;;;;;;;28.90;7.25;;;;;;;19.06;49.39;91743.47;6081466;23;20030;-88
2023/10/26 09:46:53;;;;;;;37.97;9.18;;;;;;;19.06;49.23;91738.00;6058414;23;20046;-88
2023/10/26 09:49:19;;;;;;;20.98;7.97;;;;;;;19.07;49.88;91731.22;6036966;23;20102;-88
2023/10/26 09:51:45;;;;;;;28.98;8.85;;;;;;;19.04;49.27;91729.63;6085512;23;20097;-92
2023/10/26 09:54:10;;;;;;;14.63;6.57;;;;;;;19.05;49.40;91725.56;6085753;23;20358;-90
2023/10/26 09:56:36;;;;;;;23.73;8.77;;;;;;;19.06;49.52;91721.56;6082107;23;20025;-89
2023/10/26 09:59:01;;;;;;;23.77;6.70;;;;;;;19.07;49.39;91719.53;6065202;23;20027;-92
2023/10/26 10:01:39;;;;;;;20.60;7.45;;;;;;;19.06;49.54;91713.34;6034449;23;20014;-90
2023/10/26 10:04:08;;;;;;;21.08;7.47;;;;;;;19.06;49.77;91721.56;6058373;23;20101;-89
2023/10/26 10:06:58;;;;;;;25.55;6.50;;;;;;;19.06;49.87;91713.34;6071398;23;20026;-89
2023/10/26 10:09:26;;;;;;;28.30;7.35;;;;;;;19.09;49.76;91716.97;6034905;23;20023;-89
2023/10/26 10:12:04;;;;;;;16.67;5.68;;;;;;;19.12;49.71;91713.88;6075908;23;20025;-89
2023/10/26 10:14:48;;;;;;;16.80;6.30;;;;;;;19.05;49.40;91714.63;6070161;23;20023;-90
2023/10/26 10:17:20;;;;;;;39.92;8.90;;;;;;;19.06;49.75;91724.28;6078583;23;20031;-91
2023/10/26 10:19:46;;;;;;;51.25;9.07;;;;;;;19.09;49.69;91722.47;6074490;23;20462;-91
2023/10/26 10:22:37;;;;;;;45.63;8.65;;;;;;;19.05;49.57;91733.09;6060002;23;20043;-89
2023/10/26 10:25:03;;;;;;;21.98;7.38;;;;;;;19.09;49.74;91736.16;6074573;23;20022;-89
2023/10/26 10:27:28;;;;;;;21.85;6.32;;;;;;;19.08;49.95;91734.69;6086826;23;20023;-90
2023/10/26 10:29:57;;;;;;;21.60;6.82;;;;;;;19.08;49.96;91743.66;6121715;23;20357;-91
2023/10/26 10:32:47;;;;;;;13.48;5.00;;;;;;;19.09;49.92;91736.88;6135010;23;20036;-91
2023/10/26 10:35:25;;;;;;;25.92;6.95;;;;;;;19.10;50.08;91734.88;6146308;23;20101;-91
2023/10/26 10:38:20;;;;;;;28.95;7.93;;;;;;;19.07;49.92;91733.25;6106099;23;20074;-89
2023/10/26 10:40:55;;;;;;;25.05;7.07;;;;;;;19.06;49.56;91738.00;6169169;23;20017;-91
2023/10/26 10:43:43;;;;;;;36.38;8.82;;;;;;;19.07;49.75;91725.03;6135835;23;20393;-88
2023/10/26 10:46:20;;;;;;;25.35;7.57;;;;;;;19.07;49.69;91725.03;6136458;23;20433;-91
2023/10/26 10:48:56;;;;;;;20.30;6.28;;;;;;;19.07;49.38;91716.81;6092617;23;20333;-89
2023/10/26 10:51:22;;;;;;;20.92;6.63;;;;;;;19.10;49.81;91721.19;6102785;23;20017;-90
2023/10/26 10:53:50;;;;;;;19.40;6.30;;;;;;;19.08;49.71;91734.69;6126915;23;20408;-89
2023/10/26 10:56:16;;;;;;;18.23;6.30;;;;;;;19.07;49.45;91730.50;6103535;23;20027;-91
2023/10/26 10:58:41;;;;;;;22.60;6.43;;;;;;;19.06;49.72;91727.03;6103953;23;20017;-89
2023/10/26 11:01:07;;;;;;;24.73;7.00;;;;;;;19.06;49.52;91724.28;6129016;23;20017;-89
2023/10/26 11:03:32;;;;;;;23.00;6.38;;;;;;;19.09;49.46;91730.69;6104497;23;20017;-91
2023/10/26 11:05:58;;;;;;;30.92;6.75;;;;;;;19.09;49.90;91731.41;6104546;23;20017;-88
2023/10/26 11:08:23;;;;;;;18.33;4.82;;;;;;;19.05;49.62;91750.22;6103780;23;20020;-92
2023/10/26 11:10:49;;;;;;;19.55;4.72;;;;;;;19.11;49.87;91750.03;6103918;23;20017;-89
2023/10/26 11:13:21;;;;;;;26.30;6.32;;;;;;;19.09;49.73;91753.31;6104286;23;20020;-91
2023/10/26 11:15:46;;;;;;;11.52;5.43;;;;;;;19.10;49.86;91748.56;6128506;23;20017;-89
2023/10/26 11:18:15;;;;;;;14.75;4.68;;;;;;;19.09;49.70;91738.91;6127977;23;20028;-92
2023/10/26 11:20:41;;;;;;;19.23;5.57;;;;;;;19.09;49.93;91745.09;6103924;23;20095;-90
2023/10/26 11:23:07;;;;;;;16.85;5.53;;;;;;;19.07;49.64;91747.66;6099312;23;20052;-89
2023/10/26 11:25:33;;;;;;;12.98;4.15;;;;;;;19.06;49.67;91738.00;6123890;23;20023;-91
2023/10/26 11:27:59;;;;;;;8.60;4.30;;;;;;;19.04;49.77;91732.38;6123290;23;20358;-89
2023/10/26 11:30:24;;;;;;;16.38;4.90;;;;;;;19.09;49.94;91725.19;6098817;23;20017;-89
2023/10/26 11:32:50;;;;;;;12.38;4.28;;;;;;;19.06;50.02;91723.56;6146978;23;20014;-90
2023/10/26 11:35:16;;;;;;;14.00;5.20;;;;;;;19.06;49.90;91720.81;6125482;23;20017;-89
2023/10/26 11:37:44;;;;;;;10.18;4.50;;;;;;;19.05;49.89;91716.66;6108481;23;20365;-88
2023/10/26 11:40:13;;;;;;;12.23;4.38;;;;;;;19.04;50.19;91724.16;6074875;23;20021;-91
2023/10/26 11:42:48;;;;;;;12.68;4.80;;;;;;;19.05;49.97;91728.31;6094497;23;20017;-90
2023/10/26 11:45:17;;;;;;;13.55;4.45;;;;;;;19.06;49.75;91726.31;6151860;23;20025;-91
2023/10/26 11:47:44;;;;;;;9.35;4.57;;;;;;;19.06;49.94;91720.81;6153490;23;20009;-92
2023/10/26 11:50:22;;;;;;;12.85;4.28;;;;;;;19.02;49.65;91715.03;6152095;23;20013;-90
2023/10/26 11:52:48;;;;;;;13.25;4.70;;;;;;;19.03;49.73;91719.94;6152520;23;20021;-88
2023/10/26 11:55:14;;;;;;;18.35;5.07;;;;;;;19.03;49.77;91722.69;6152228;23;20478;-90
2023/10/26 11:57:40;;;;;;;10.77;3.92;;;;;;;19.05;49.89;91724.88;6153049;23;20017;-90